sensor_id;sensor_type;location;lat;lon;timestamp;P1;durP1;ratioP1;P2;durP2;ratioP2
39958;SDS011;25639;53.634;9.880;2023-02-11T00:00:56;63.03;;;23.13;;
39958;SDS011;25639;53.634;9.880;2023-02-11T00:03:22;59.95;;;23.10;;
39958;SDS011;25639;53.634;9.880;2023-02-11T00:06:01;64.82;;;22.83;;
39958;SDS011;25639;53.634;9.880;2023-02-11T00:08:30;58.20;;;23.40;;
39958;SDS011;25639;53.634;9.880;2023-02-11T00:11:20;64.65;;;23.15;;
39958;SDS011;25639;53.634;9.880;2023-02-11T00:13:47;49.83;;;22.08;;
39958;SDS011;25639;53.634;9.880;2023-02-11T00:16:14;64.68;;;23.15;;
39958;SDS011;25639;53.634;9.880;2023-02-11T00:18:44;54.92;;;22.50;;
39958;SDS011;25639;53.634;9.880;2023-02-11T00:21:11;56.30;;;22.85;;
39958;SDS011;25639;53.634;9.880;2023-02-11T00:23:39;59.80;;;23.35;;
39958;SDS011;25639;53.634;9.880;2023-02-11T00:26:12;57.33;;;22.15;;
39958;SDS011;25639;53.634;9.880;2023-02-11T00:28:42;60.33;;;22.77;;
39958;SDS011;25639;53.634;9.880;2023-02-11T00:31:09;60.03;;;23.33;;
39958;SDS011;25639;53.634;9.880;2023-02-11T00:33:37;56.42;;;22.65;;
39958;SDS011;25639;53.634;9.880;2023-02-11T00:36:08;71.43;;;24.00;;
39958;SDS011;25639;53.634;9.880;2023-02-11T00:46:44;62.13;;;24.10;;
39958;SDS011;25639;53.634;9.880;2023-02-11T00:49:09;64.32;;;22.70;;
39958;SDS011;25639;53.634;9.880;2023-02-11T00:51:35;58.70;;;23.98;;
39958;SDS011;25639;53.634;9.880;2023-02-11T00:54:00;69.75;;;24.45;;
39958;SDS011;25639;53.634;9.880;2023-02-11T00:56:25;61.83;;;22.55;;
39958;SDS011;25639;53.634;9.880;2023-02-11T00:58:51;62.53;;;23.25;;
39958;SDS011;25639;53.634;9.880;2023-02-11T01:01:17;63.95;;;25.30;;
39958;SDS011;25639;53.634;9.880;2023-02-11T01:03:43;68.72;;;23.80;;
39958;SDS011;25639;53.634;9.880;2023-02-11T01:06:08;66.03;;;25.48;;
39958;SDS011;25639;53.634;9.880;2023-02-11T01:08:34;65.80;;;23.35;;
39958;SDS011;25639;53.634;9.880;2023-02-11T01:11:01;64.22;;;22.85;;
39958;SDS011;25639;53.634;9.880;2023-02-11T01:13:28;62.95;;;24.85;;
39958;SDS011;25639;53.634;9.880;2023-02-11T01:15:55;57.88;;;25.00;;
39958;SDS011;25639;53.634;9.880;2023-02-11T01:18:21;77.05;;;24.05;;
39958;SDS011;25639;53.634;9.880;2023-02-11T01:20:46;66.75;;;24.45;;
39958;SDS011;25639;53.634;9.880;2023-02-11T01:23:12;61.47;;;24.70;;
39958;SDS011;25639;53.634;9.880;2023-02-11T01:25:37;64.07;;;24.40;;
39958;SDS011;25639;53.634;9.880;2023-02-11T01:28:02;79.00;;;27.58;;
39958;SDS011;25639;53.634;9.880;2023-02-11T01:30:28;70.38;;;26.38;;
39958;SDS011;25639;53.634;9.880;2023-02-11T01:32:53;72.05;;;25.60;;
39958;SDS011;25639;53.634;9.880;2023-02-11T01:35:18;69.43;;;25.55;;
39958;SDS011;25639;53.634;9.880;2023-02-11T01:37:44;68.35;;;25.02;;
39958;SDS011;25639;53.634;9.880;2023-02-11T01:40:11;64.93;;;27.13;;
39958;SDS011;25639;53.634;9.880;2023-02-11T01:42:39;71.82;;;25.65;;
39958;SDS011;25639;53.634;9.880;2023-02-11T01:48:08;64.22;;;26.50;;
39958;SDS011;25639;53.634;9.880;2023-02-11T01:50:36;70.50;;;25.92;;
39958;SDS011;25639;53.634;9.880;2023-02-11T01:53:05;76.60;;;28.05;;
39958;SDS011;25639;53.634;9.880;2023-02-11T01:55:51;67.75;;;26.95;;
39958;SDS011;25639;53.634;9.880;2023-02-11T01:58:37;77.38;;;27.42;;
39958;SDS011;25639;53.634;9.880;2023-02-11T02:01:04;69.13;;;26.90;;
39958;SDS011;25639;53.634;9.880;2023-02-11T02:03:32;72.32;;;28.08;;
39958;SDS011;25639;53.634;9.880;2023-02-11T02:06:23;75.35;;;27.08;;
39958;SDS011;25639;53.634;9.880;2023-02-11T02:09:01;69.68;;;27.60;;
39958;SDS011;25639;53.634;9.880;2023-02-11T02:11:33;84.10;;;29.00;;
39958;SDS011;25639;53.634;9.880;2023-02-11T02:13:59;81.85;;;28.23;;
39958;SDS011;25639;53.634;9.880;2023-02-11T02:16:28;72.22;;;28.52;;
39958;SDS011;25639;53.634;9.880;2023-02-11T02:27:33;74.80;;;26.50;;
39958;SDS011;25639;53.634;9.880;2023-02-11T02:36:12;85.93;;;26.30;;
39958;SDS011;25639;53.634;9.880;2023-02-11T02:41:18;73.15;;;25.48;;
39958;SDS011;25639;53.634;9.880;2023-02-11T02:43:48;71.47;;;26.13;;
39958;SDS011;25639;53.634;9.880;2023-02-11T02:46:19;65.82;;;24.08;;
39958;SDS011;25639;53.634;9.880;2023-02-11T02:48:47;60.78;;;23.33;;
39958;SDS011;25639;53.634;9.880;2023-02-11T02:51:22;62.47;;;23.67;;
39958;SDS011;25639;53.634;9.880;2023-02-11T02:59:21;57.17;;;23.27;;
39958;SDS011;25639;53.634;9.880;2023-02-11T03:12:49;57.28;;;22.60;;
39958;SDS011;25639;53.634;9.880;2023-02-11T03:15:17;62.60;;;22.83;;
39958;SDS011;25639;53.634;9.880;2023-02-11T03:17:46;61.40;;;22.48;;
39958;SDS011;25639;53.634;9.880;2023-02-11T03:20:13;66.30;;;23.90;;
39958;SDS011;25639;53.634;9.880;2023-02-11T03:22:54;72.90;;;21.52;;
39958;SDS011;25639;53.634;9.880;2023-02-11T03:28:06;67.00;;;22.70;;
39958;SDS011;25639;53.634;9.880;2023-02-11T03:30:41;67.40;;;22.77;;
39958;SDS011;25639;53.634;9.880;2023-02-11T03:33:17;69.32;;;21.33;;
39958;SDS011;25639;53.634;9.880;2023-02-11T03:36:10;85.22;;;23.02;;
39958;SDS011;25639;53.634;9.880;2023-02-11T03:38:41;75.10;;;23.20;;
39958;SDS011;25639;53.634;9.880;2023-02-11T03:41:12;68.22;;;22.20;;
39958;SDS011;25639;53.634;9.880;2023-02-11T03:43:49;64.07;;;22.52;;
39958;SDS011;25639;53.634;9.880;2023-02-11T03:46:17;57.17;;;21.15;;
39958;SDS011;25639;53.634;9.880;2023-02-11T03:48:49;68.85;;;21.77;;
39958;SDS011;25639;53.634;9.880;2023-02-11T03:51:19;56.25;;;20.77;;
39958;SDS011;25639;53.634;9.880;2023-02-11T03:53:47;63.22;;;21.70;;
39958;SDS011;25639;53.634;9.880;2023-02-11T03:56:17;62.97;;;19.73;;
39958;SDS011;25639;53.634;9.880;2023-02-11T03:58:47;57.40;;;21.25;;
39958;SDS011;25639;53.634;9.880;2023-02-11T04:01:13;54.13;;;19.45;;
39958;SDS011;25639;53.634;9.880;2023-02-11T04:03:39;58.17;;;20.85;;
39958;SDS011;25639;53.634;9.880;2023-02-11T04:06:05;55.15;;;18.50;;
39958;SDS011;25639;53.634;9.880;2023-02-11T04:08:30;52.90;;;17.88;;
39958;SDS011;25639;53.634;9.880;2023-02-11T04:10:56;56.22;;;18.67;;
39958;SDS011;25639;53.634;9.880;2023-02-11T04:13:22;55.85;;;17.95;;
39958;SDS011;25639;53.634;9.880;2023-02-11T04:15:47;56.03;;;18.60;;
39958;SDS011;25639;53.634;9.880;2023-02-11T04:18:13;57.90;;;18.20;;
39958;SDS011;25639;53.634;9.880;2023-02-11T04:20:38;63.65;;;18.80;;
39958;SDS011;25639;53.634;9.880;2023-02-11T04:23:03;58.22;;;18.60;;
39958;SDS011;25639;53.634;9.880;2023-02-11T04:25:29;52.72;;;17.77;;
39958;SDS011;25639;53.634;9.880;2023-02-11T04:27:54;51.10;;;18.23;;
39958;SDS011;25639;53.634;9.880;2023-02-11T04:30:20;52.67;;;18.75;;
39958;SDS011;25639;53.634;9.880;2023-02-11T04:32:48;66.00;;;17.80;;
39958;SDS011;25639;53.634;9.880;2023-02-11T04:35:13;55.25;;;18.10;;
39958;SDS011;25639;53.634;9.880;2023-02-11T04:37:39;59.67;;;18.25;;
39958;SDS011;25639;53.634;9.880;2023-02-11T04:40:04;55.80;;;18.30;;
39958;SDS011;25639;53.634;9.880;2023-02-11T04:42:30;51.85;;;17.42;;
39958;SDS011;25639;53.634;9.880;2023-02-11T04:44:55;55.75;;;16.88;;
39958;SDS011;25639;53.634;9.880;2023-02-11T04:47:21;51.58;;;18.65;;
39958;SDS011;25639;53.634;9.880;2023-02-11T04:49:46;53.03;;;18.02;;
39958;SDS011;25639;53.634;9.880;2023-02-11T04:52:11;59.92;;;18.05;;
39958;SDS011;25639;53.634;9.880;2023-02-11T04:54:37;58.10;;;17.58;;
39958;SDS011;25639;53.634;9.880;2023-02-11T04:57:02;50.72;;;17.35;;
39958;SDS011;25639;53.634;9.880;2023-02-11T04:59:28;52.22;;;18.75;;
39958;SDS011;25639;53.634;9.880;2023-02-11T05:01:53;51.92;;;17.77;;
39958;SDS011;25639;53.634;9.880;2023-02-11T05:04:18;47.00;;;17.77;;
39958;SDS011;25639;53.634;9.880;2023-02-11T05:06:44;63.28;;;18.58;;
39958;SDS011;25639;53.634;9.880;2023-02-11T05:09:10;59.40;;;18.27;;
39958;SDS011;25639;53.634;9.880;2023-02-11T05:11:37;49.40;;;18.70;;
39958;SDS011;25639;53.634;9.880;2023-02-11T05:14:03;59.55;;;19.33;;
39958;SDS011;25639;53.634;9.880;2023-02-11T05:16:29;61.75;;;19.45;;
39958;SDS011;25639;53.634;9.880;2023-02-11T05:18:55;55.85;;;17.70;;
39958;SDS011;25639;53.634;9.880;2023-02-11T05:21:20;56.58;;;19.55;;
39958;SDS011;25639;53.634;9.880;2023-02-11T05:23:46;58.75;;;18.20;;
39958;SDS011;25639;53.634;9.880;2023-02-11T05:26:11;48.72;;;18.52;;
39958;SDS011;25639;53.634;9.880;2023-02-11T05:28:37;52.20;;;19.63;;
39958;SDS011;25639;53.634;9.880;2023-02-11T05:31:03;51.58;;;18.48;;
39958;SDS011;25639;53.634;9.880;2023-02-11T05:33:29;52.63;;;18.58;;
39958;SDS011;25639;53.634;9.880;2023-02-11T05:36:01;51.58;;;18.38;;
39958;SDS011;25639;53.634;9.880;2023-02-11T05:38:28;57.83;;;17.38;;
39958;SDS011;25639;53.634;9.880;2023-02-11T05:40:53;59.20;;;19.83;;
39958;SDS011;25639;53.634;9.880;2023-02-11T05:43:19;50.25;;;18.30;;
39958;SDS011;25639;53.634;9.880;2023-02-11T05:45:44;56.22;;;19.50;;
39958;SDS011;25639;53.634;9.880;2023-02-11T05:48:09;53.45;;;17.55;;
39958;SDS011;25639;53.634;9.880;2023-02-11T05:50:35;44.85;;;17.67;;
39958;SDS011;25639;53.634;9.880;2023-02-11T05:53:00;48.63;;;17.40;;
39958;SDS011;25639;53.634;9.880;2023-02-11T05:55:25;45.05;;;16.70;;
39958;SDS011;25639;53.634;9.880;2023-02-11T05:57:51;50.10;;;17.05;;
39958;SDS011;25639;53.634;9.880;2023-02-11T06:00:16;43.67;;;17.25;;
39958;SDS011;25639;53.634;9.880;2023-02-11T06:02:42;46.40;;;16.95;;
39958;SDS011;25639;53.634;9.880;2023-02-11T06:05:07;39.53;;;16.10;;
39958;SDS011;25639;53.634;9.880;2023-02-11T06:07:33;44.33;;;16.58;;
39958;SDS011;25639;53.634;9.880;2023-02-11T06:09:58;44.75;;;16.45;;
39958;SDS011;25639;53.634;9.880;2023-02-11T06:12:24;40.90;;;17.38;;
39958;SDS011;25639;53.634;9.880;2023-02-11T06:14:52;44.92;;;16.70;;
39958;SDS011;25639;53.634;9.880;2023-02-11T06:17:18;42.97;;;16.65;;
39958;SDS011;25639;53.634;9.880;2023-02-11T06:19:43;44.78;;;16.65;;
39958;SDS011;25639;53.634;9.880;2023-02-11T06:22:08;36.15;;;16.25;;
39958;SDS011;25639;53.634;9.880;2023-02-11T06:24:34;48.45;;;16.75;;
39958;SDS011;25639;53.634;9.880;2023-02-11T06:27:01;44.60;;;17.50;;
39958;SDS011;25639;53.634;9.880;2023-02-11T06:29:29;38.85;;;15.90;;
39958;SDS011;25639;53.634;9.880;2023-02-11T06:31:55;45.75;;;17.98;;
39958;SDS011;25639;53.634;9.880;2023-02-11T06:34:20;47.45;;;17.48;;
39958;SDS011;25639;53.634;9.880;2023-02-11T06:36:45;47.08;;;18.48;;
39958;SDS011;25639;53.634;9.880;2023-02-11T06:39:11;48.70;;;17.38;;
39958;SDS011;25639;53.634;9.880;2023-02-11T06:41:37;40.70;;;17.65;;
39958;SDS011;25639;53.634;9.880;2023-02-11T06:44:02;44.35;;;17.50;;
39958;SDS011;25639;53.634;9.880;2023-02-11T06:46:28;49.08;;;18.08;;
39958;SDS011;25639;53.634;9.880;2023-02-11T06:48:53;40.60;;;16.85;;
39958;SDS011;25639;53.634;9.880;2023-02-11T06:51:18;52.72;;;18.50;;
39958;SDS011;25639;53.634;9.880;2023-02-11T06:53:44;45.90;;;18.42;;
39958;SDS011;25639;53.634;9.880;2023-02-11T06:56:13;43.03;;;17.27;;
39958;SDS011;25639;53.634;9.880;2023-02-11T06:58:45;45.15;;;18.00;;
39958;SDS011;25639;53.634;9.880;2023-02-11T07:01:12;48.03;;;18.42;;
39958;SDS011;25639;53.634;9.880;2023-02-11T07:03:40;47.72;;;18.55;;
39958;SDS011;25639;53.634;9.880;2023-02-11T07:06:07;41.63;;;17.50;;
39958;SDS011;25639;53.634;9.880;2023-02-11T07:08:35;44.50;;;17.75;;
39958;SDS011;25639;53.634;9.880;2023-02-11T07:11:11;48.05;;;18.10;;
39958;SDS011;25639;53.634;9.880;2023-02-11T07:13:38;41.97;;;17.90;;
39958;SDS011;25639;53.634;9.880;2023-02-11T07:16:07;43.85;;;17.73;;
39958;SDS011;25639;53.634;9.880;2023-02-11T07:18:36;52.40;;;20.00;;
39958;SDS011;25639;53.634;9.880;2023-02-11T07:21:05;51.33;;;19.63;;
39958;SDS011;25639;53.634;9.880;2023-02-11T07:23:32;47.70;;;19.02;;
39958;SDS011;25639;53.634;9.880;2023-02-11T07:26:01;42.53;;;18.65;;
39958;SDS011;25639;53.634;9.880;2023-02-11T07:28:29;51.05;;;19.38;;
39958;SDS011;25639;53.634;9.880;2023-02-11T07:30:55;46.25;;;19.77;;
39958;SDS011;25639;53.634;9.880;2023-02-11T07:33:20;49.20;;;19.75;;
39958;SDS011;25639;53.634;9.880;2023-02-11T07:35:46;54.67;;;20.73;;
39958;SDS011;25639;53.634;9.880;2023-02-11T07:38:11;61.40;;;21.40;;
39958;SDS011;25639;53.634;9.880;2023-02-11T07:40:36;54.30;;;19.27;;
39958;SDS011;25639;53.634;9.880;2023-02-11T07:43:02;65.25;;;21.08;;
39958;SDS011;25639;53.634;9.880;2023-02-11T07:45:27;59.17;;;19.90;;
39958;SDS011;25639;53.634;9.880;2023-02-11T07:47:53;58.17;;;21.58;;
39958;SDS011;25639;53.634;9.880;2023-02-11T07:50:18;59.95;;;21.10;;
39958;SDS011;25639;53.634;9.880;2023-02-11T07:52:43;57.10;;;21.77;;
39958;SDS011;25639;53.634;9.880;2023-02-11T07:55:09;60.58;;;21.27;;
39958;SDS011;25639;53.634;9.880;2023-02-11T07:57:35;51.00;;;20.65;;
39958;SDS011;25639;53.634;9.880;2023-02-11T08:00:01;58.55;;;22.20;;
39958;SDS011;25639;53.634;9.880;2023-02-11T08:02:27;60.67;;;22.13;;
39958;SDS011;25639;53.634;9.880;2023-02-11T08:04:52;56.50;;;22.42;;
39958;SDS011;25639;53.634;9.880;2023-02-11T08:07:18;65.85;;;22.80;;
39958;SDS011;25639;53.634;9.880;2023-02-11T08:09:43;63.58;;;23.90;;
39958;SDS011;25639;53.634;9.880;2023-02-11T08:12:09;63.60;;;23.40;;
39958;SDS011;25639;53.634;9.880;2023-02-11T08:14:35;59.50;;;21.63;;
39958;SDS011;25639;53.634;9.880;2023-02-11T08:17:00;69.85;;;21.70;;
39958;SDS011;25639;53.634;9.880;2023-02-11T08:19:26;66.00;;;21.58;;
39958;SDS011;25639;53.634;9.880;2023-02-11T08:21:54;62.67;;;22.80;;
39958;SDS011;25639;53.634;9.880;2023-02-11T08:24:20;64.43;;;22.42;;
39958;SDS011;25639;53.634;9.880;2023-02-11T08:26:46;55.83;;;22.05;;
39958;SDS011;25639;53.634;9.880;2023-02-11T08:29:12;60.47;;;23.05;;
39958;SDS011;25639;53.634;9.880;2023-02-11T08:31:39;67.93;;;23.42;;
39958;SDS011;25639;53.634;9.880;2023-02-11T08:34:06;52.67;;;21.77;;
39958;SDS011;25639;53.634;9.880;2023-02-11T08:36:33;62.78;;;22.00;;
39958;SDS011;25639;53.634;9.880;2023-02-11T08:39:01;62.85;;;22.60;;
39958;SDS011;25639;53.634;9.880;2023-02-11T08:41:33;62.35;;;22.30;;
39958;SDS011;25639;53.634;9.880;2023-02-11T08:43:59;59.65;;;21.98;;
39958;SDS011;25639;53.634;9.880;2023-02-11T08:46:25;63.10;;;23.38;;
39958;SDS011;25639;53.634;9.880;2023-02-11T08:48:51;61.33;;;21.17;;
39958;SDS011;25639;53.634;9.880;2023-02-11T08:51:18;52.97;;;20.05;;
39958;SDS011;25639;53.634;9.880;2023-02-11T08:53:47;54.58;;;20.20;;
39958;SDS011;25639;53.634;9.880;2023-02-11T08:56:14;53.30;;;19.50;;
39958;SDS011;25639;53.634;9.880;2023-02-11T08:58:40;48.78;;;19.55;;
39958;SDS011;25639;53.634;9.880;2023-02-11T09:01:10;50.40;;;19.15;;
39958;SDS011;25639;53.634;9.880;2023-02-11T09:03:36;55.08;;;20.00;;
39958;SDS011;25639;53.634;9.880;2023-02-11T09:06:03;52.00;;;19.92;;
39958;SDS011;25639;53.634;9.880;2023-02-11T09:08:29;53.75;;;18.80;;
39958;SDS011;25639;53.634;9.880;2023-02-11T09:10:55;51.10;;;19.77;;
39958;SDS011;25639;53.634;9.880;2023-02-11T09:13:21;54.78;;;18.30;;
39958;SDS011;25639;53.634;9.880;2023-02-11T09:15:46;47.00;;;18.55;;
39958;SDS011;25639;53.634;9.880;2023-02-11T09:18:11;51.00;;;16.88;;
39958;SDS011;25639;53.634;9.880;2023-02-11T09:20:37;46.47;;;17.95;;
39958;SDS011;25639;53.634;9.880;2023-02-11T09:23:02;48.00;;;17.77;;
39958;SDS011;25639;53.634;9.880;2023-02-11T09:25:29;47.78;;;17.05;;
39958;SDS011;25639;53.634;9.880;2023-02-11T09:27:55;49.67;;;16.38;;
39958;SDS011;25639;53.634;9.880;2023-02-11T09:30:20;45.08;;;17.50;;
39958;SDS011;25639;53.634;9.880;2023-02-11T09:32:47;50.08;;;17.35;;
39958;SDS011;25639;53.634;9.880;2023-02-11T09:35:13;55.60;;;16.63;;
39958;SDS011;25639;53.634;9.880;2023-02-11T09:37:39;46.17;;;16.02;;
39958;SDS011;25639;53.634;9.880;2023-02-11T09:40:04;51.33;;;16.50;;
39958;SDS011;25639;53.634;9.880;2023-02-11T09:42:42;43.20;;;15.63;;
39958;SDS011;25639;53.634;9.880;2023-02-11T09:45:14;64.82;;;16.60;;
39958;SDS011;25639;53.634;9.880;2023-02-11T09:47:47;47.45;;;15.38;;
39958;SDS011;25639;53.634;9.880;2023-02-11T09:50:18;56.20;;;17.13;;
39958;SDS011;25639;53.634;9.880;2023-02-11T09:52:53;49.88;;;15.25;;
39958;SDS011;25639;53.634;9.880;2023-02-11T09:55:27;47.13;;;14.50;;
39958;SDS011;25639;53.634;9.880;2023-02-11T09:57:56;57.05;;;14.38;;
39958;SDS011;25639;53.634;9.880;2023-02-11T10:08:51;58.08;;;12.25;;
39958;SDS011;25639;53.634;9.880;2023-02-11T10:20:09;62.15;;;12.80;;
39958;SDS011;25639;53.634;9.880;2023-02-11T10:22:44;39.47;;;10.32;;
39958;SDS011;25639;53.634;9.880;2023-02-11T10:25:55;45.53;;;11.95;;
39958;SDS011;25639;53.634;9.880;2023-02-11T10:28:11;47.55;;;11.23;;
39958;SDS011;25639;53.634;9.880;2023-02-11T10:36:34;52.83;;;11.50;;
39958;SDS011;25639;53.634;9.880;2023-02-11T10:39:19;40.50;;;9.55;;
39958;SDS011;25639;53.634;9.880;2023-02-11T10:41:47;47.15;;;9.38;;
39958;SDS011;25639;53.634;9.880;2023-02-11T10:47:13;40.50;;;9.65;;
39958;SDS011;25639;53.634;9.880;2023-02-11T10:49:46;40.80;;;9.10;;
39958;SDS011;25639;53.634;9.880;2023-02-11T10:52:17;38.35;;;8.52;;
39958;SDS011;25639;53.634;9.880;2023-02-11T10:55:08;31.15;;;8.75;;
39958;SDS011;25639;53.634;9.880;2023-02-11T10:57:40;33.10;;;8.90;;
39958;SDS011;25639;53.634;9.880;2023-02-11T11:02:41;35.10;;;7.55;;
39958;SDS011;25639;53.634;9.880;2023-02-11T11:05:16;36.67;;;8.30;;
39958;SDS011;25639;53.634;9.880;2023-02-11T11:07:50;45.63;;;8.38;;
39958;SDS011;25639;53.634;9.880;2023-02-11T11:10:29;34.85;;;6.85;;
39958;SDS011;25639;53.634;9.880;2023-02-11T11:12:59;41.65;;;7.78;;
39958;SDS011;25639;53.634;9.880;2023-02-11T11:15:25;30.80;;;7.68;;
39958;SDS011;25639;53.634;9.880;2023-02-11T11:20:57;40.80;;;7.63;;
39958;SDS011;25639;53.634;9.880;2023-02-11T11:23:25;29.15;;;6.32;;
39958;SDS011;25639;53.634;9.880;2023-02-11T11:28:28;28.25;;;7.18;;
39958;SDS011;25639;53.634;9.880;2023-02-11T11:30:55;28.55;;;6.03;;
39958;SDS011;25639;53.634;9.880;2023-02-11T11:33:24;23.20;;;6.13;;
39958;SDS011;25639;53.634;9.880;2023-02-11T11:36:08;29.52;;;6.35;;
39958;SDS011;25639;53.634;9.880;2023-02-11T11:38:36;30.40;;;6.47;;
39958;SDS011;25639;53.634;9.880;2023-02-11T11:43:58;29.70;;;5.60;;
39958;SDS011;25639;53.634;9.880;2023-02-11T11:46:33;27.83;;;5.72;;
39958;SDS011;25639;53.634;9.880;2023-02-11T11:49:06;34.05;;;5.20;;
39958;SDS011;25639;53.634;9.880;2023-02-11T11:51:34;24.67;;;6.88;;
39958;SDS011;25639;53.634;9.880;2023-02-11T11:54:05;20.02;;;5.40;;
39958;SDS011;25639;53.634;9.880;2023-02-11T11:56:38;22.42;;;5.03;;
39958;SDS011;25639;53.634;9.880;2023-02-11T11:59:18;21.88;;;5.03;;
39958;SDS011;25639;53.634;9.880;2023-02-11T12:01:47;22.55;;;6.32;;
39958;SDS011;25639;53.634;9.880;2023-02-11T12:26:34;23.65;;;5.35;;
39958;SDS011;25639;53.634;9.880;2023-02-11T12:29:20;24.38;;;5.63;;
39958;SDS011;25639;53.634;9.880;2023-02-11T12:34:43;15.93;;;4.93;;
39958;SDS011;25639;53.634;9.880;2023-02-11T12:40:15;16.45;;;4.40;;
39958;SDS011;25639;53.634;9.880;2023-02-11T12:51:43;32.58;;;5.55;;
39958;SDS011;25639;53.634;9.880;2023-02-11T12:54:36;23.30;;;5.70;;
39958;SDS011;25639;53.634;9.880;2023-02-11T12:57:17;31.38;;;6.35;;
39958;SDS011;25639;53.634;9.880;2023-02-11T12:59:50;27.08;;;5.22;;
39958;SDS011;25639;53.634;9.880;2023-02-11T13:02:33;37.88;;;6.70;;
39958;SDS011;25639;53.634;9.880;2023-02-11T13:07:55;29.75;;;5.78;;
39958;SDS011;25639;53.634;9.880;2023-02-11T13:10:34;19.63;;;5.25;;
39958;SDS011;25639;53.634;9.880;2023-02-11T13:13:02;29.00;;;4.65;;
39958;SDS011;25639;53.634;9.880;2023-02-11T13:15:47;29.77;;;5.53;;
39958;SDS011;25639;53.634;9.880;2023-02-11T13:18:21;31.77;;;4.70;;
39958;SDS011;25639;53.634;9.880;2023-02-11T13:20:58;34.05;;;5.53;;
39958;SDS011;25639;53.634;9.880;2023-02-11T13:31:16;29.73;;;5.55;;
39958;SDS011;25639;53.634;9.880;2023-02-11T13:33:44;28.30;;;6.20;;
39958;SDS011;25639;53.634;9.880;2023-02-11T13:36:14;44.20;;;6.55;;
39958;SDS011;25639;53.634;9.880;2023-02-11T13:38:49;48.75;;;6.28;;
39958;SDS011;25639;53.634;9.880;2023-02-11T13:41:18;42.65;;;6.15;;
39958;SDS011;25639;53.634;9.880;2023-02-11T13:46:54;48.28;;;6.43;;
39958;SDS011;25639;53.634;9.880;2023-02-11T13:49:21;45.30;;;7.60;;
39958;SDS011;25639;53.634;9.880;2023-02-11T13:51:53;47.08;;;7.60;;
39958;SDS011;25639;53.634;9.880;2023-02-11T13:54:24;38.85;;;6.50;;
39958;SDS011;25639;53.634;9.880;2023-02-11T13:59:48;45.47;;;7.15;;
39958;SDS011;25639;53.634;9.880;2023-02-11T14:02:30;31.17;;;5.32;;
39958;SDS011;25639;53.634;9.880;2023-02-11T14:10:55;51.60;;;6.13;;
39958;SDS011;25639;53.634;9.880;2023-02-11T14:13:36;41.45;;;6.95;;
39958;SDS011;25639;53.634;9.880;2023-02-11T14:16:29;42.80;;;6.18;;
39958;SDS011;25639;53.634;9.880;2023-02-11T14:21:28;47.97;;;6.22;;
39958;SDS011;25639;53.634;9.880;2023-02-11T14:27:07;33.83;;;5.25;;
39958;SDS011;25639;53.634;9.880;2023-02-11T14:29:17;38.83;;;5.10;;
39958;SDS011;25639;53.634;9.880;2023-02-11T14:32:01;37.40;;;4.85;;
39958;SDS011;25639;53.634;9.880;2023-02-11T14:34:36;33.97;;;4.65;;
39958;SDS011;25639;53.634;9.880;2023-02-11T14:37:29;26.95;;;4.68;;
39958;SDS011;25639;53.634;9.880;2023-02-11T14:40:09;27.05;;;5.78;;
39958;SDS011;25639;53.634;9.880;2023-02-11T14:43:09;26.42;;;4.65;;
39958;SDS011;25639;53.634;9.880;2023-02-11T14:45:37;35.83;;;6.13;;
39958;SDS011;25639;53.634;9.880;2023-02-11T14:48:07;26.00;;;4.72;;
39958;SDS011;25639;53.634;9.880;2023-02-11T14:53:12;37.13;;;5.72;;
39958;SDS011;25639;53.634;9.880;2023-02-11T14:55:48;19.98;;;4.07;;
39958;SDS011;25639;53.634;9.880;2023-02-11T14:58:19;30.55;;;5.25;;
39958;SDS011;25639;53.634;9.880;2023-02-11T15:00:55;20.77;;;4.30;;
39958;SDS011;25639;53.634;9.880;2023-02-11T15:03:24;24.60;;;4.25;;
39958;SDS011;25639;53.634;9.880;2023-02-11T15:06:17;20.38;;;4.68;;
39958;SDS011;25639;53.634;9.880;2023-02-11T15:08:49;23.23;;;4.40;;
39958;SDS011;25639;53.634;9.880;2023-02-11T15:11:19;25.33;;;4.47;;
39958;SDS011;25639;53.634;9.880;2023-02-11T15:13:46;25.27;;;3.80;;
39958;SDS011;25639;53.634;9.880;2023-02-11T15:16:14;39.28;;;5.05;;
39958;SDS011;25639;53.634;9.880;2023-02-11T15:18:44;26.13;;;5.43;;
39958;SDS011;25639;53.634;9.880;2023-02-11T15:21:21;28.20;;;4.28;;
39958;SDS011;25639;53.634;9.880;2023-02-11T15:23:56;42.33;;;6.32;;
39958;SDS011;25639;53.634;9.880;2023-02-11T15:26:23;33.60;;;6.03;;
39958;SDS011;25639;53.634;9.880;2023-02-11T15:28:48;33.35;;;6.20;;
39958;SDS011;25639;53.634;9.880;2023-02-11T15:31:16;43.05;;;7.47;;
39958;SDS011;25639;53.634;9.880;2023-02-11T15:33:43;47.50;;;7.82;;
39958;SDS011;25639;53.634;9.880;2023-02-11T15:36:12;37.63;;;6.97;;
39958;SDS011;25639;53.634;9.880;2023-02-11T15:38:39;54.97;;;8.20;;
39958;SDS011;25639;53.634;9.880;2023-02-11T15:41:05;44.25;;;6.85;;
39958;SDS011;25639;53.634;9.880;2023-02-11T15:46:06;40.10;;;7.10;;
39958;SDS011;25639;53.634;9.880;2023-02-11T15:48:37;45.03;;;6.97;;
39958;SDS011;25639;53.634;9.880;2023-02-11T15:51:24;46.22;;;6.60;;
39958;SDS011;25639;53.634;9.880;2023-02-11T15:53:58;38.35;;;7.25;;
39958;SDS011;25639;53.634;9.880;2023-02-11T15:59:13;32.13;;;6.25;;
39958;SDS011;25639;53.634;9.880;2023-02-11T16:01:43;34.58;;;6.20;;
39958;SDS011;25639;53.634;9.880;2023-02-11T16:04:27;40.78;;;6.53;;
39958;SDS011;25639;53.634;9.880;2023-02-11T16:06:53;38.05;;;6.32;;
39958;SDS011;25639;53.634;9.880;2023-02-11T16:11:56;38.63;;;7.07;;
39958;SDS011;25639;53.634;9.880;2023-02-11T16:19:26;38.80;;;6.53;;
39958;SDS011;25639;53.634;9.880;2023-02-11T16:21:54;35.22;;;7.25;;
39958;SDS011;25639;53.634;9.880;2023-02-11T16:24:26;52.70;;;7.10;;
39958;SDS011;25639;53.634;9.880;2023-02-11T16:27:01;42.95;;;7.32;;
39958;SDS011;25639;53.634;9.880;2023-02-11T16:29:29;39.03;;;7.75;;
39958;SDS011;25639;53.634;9.880;2023-02-11T16:32:14;42.30;;;8.55;;
39958;SDS011;25639;53.634;9.880;2023-02-11T16:34:47;47.30;;;9.02;;
39958;SDS011;25639;53.634;9.880;2023-02-11T16:37:13;47.50;;;9.13;;
39958;SDS011;25639;53.634;9.880;2023-02-11T16:39:38;45.83;;;10.35;;
39958;SDS011;25639;53.634;9.880;2023-02-11T16:42:04;58.20;;;10.63;;
39958;SDS011;25639;53.634;9.880;2023-02-11T16:44:31;60.80;;;10.75;;
39958;SDS011;25639;53.634;9.880;2023-02-11T16:46:57;61.92;;;10.70;;
39958;SDS011;25639;53.634;9.880;2023-02-11T16:49:29;69.22;;;12.18;;
39958;SDS011;25639;53.634;9.880;2023-02-11T16:51:59;58.17;;;10.80;;
39958;SDS011;25639;53.634;9.880;2023-02-11T16:54:27;57.75;;;10.15;;
39958;SDS011;25639;53.634;9.880;2023-02-11T16:56:54;53.00;;;11.77;;
39958;SDS011;25639;53.634;9.880;2023-02-11T16:59:19;77.25;;;11.00;;
39958;SDS011;25639;53.634;9.880;2023-02-11T17:01:45;57.65;;;10.70;;
39958;SDS011;25639;53.634;9.880;2023-02-11T17:04:17;50.55;;;9.13;;
39958;SDS011;25639;53.634;9.880;2023-02-11T17:06:47;51.75;;;10.02;;
39958;SDS011;25639;53.634;9.880;2023-02-11T17:09:20;57.78;;;11.18;;
39958;SDS011;25639;53.634;9.880;2023-02-11T17:11:47;62.72;;;11.07;;
39958;SDS011;25639;53.634;9.880;2023-02-11T17:14:13;48.22;;;9.55;;
39958;SDS011;25639;53.634;9.880;2023-02-11T17:16:40;43.70;;;9.32;;
39958;SDS011;25639;53.634;9.880;2023-02-11T17:19:06;45.17;;;9.95;;
39958;SDS011;25639;53.634;9.880;2023-02-11T17:21:33;49.95;;;11.07;;
39958;SDS011;25639;53.634;9.880;2023-02-11T17:23:59;54.67;;;10.95;;